sensor_id;sensor_type;location;lat;lon;timestamp;temperature;humidity
39601;DHT22;25297;44.758;11.310;2022-12-18T00:00:58;10.60;90.60
39601;DHT22;25297;44.758;11.310;2022-12-18T00:03:23;10.60;90.50
39601;DHT22;25297;44.758;11.310;2022-12-18T00:05:51;10.60;90.40
39601;DHT22;25297;44.758;11.310;2022-12-18T00:08:17;10.50;90.20
39601;DHT22;25297;44.758;11.310;2022-12-18T00:10:43;10.50;90.20
39601;DHT22;25297;44.758;11.310;2022-12-18T00:13:09;10.50;90.20
39601;DHT22;25297;44.758;11.310;2022-12-18T00:15:36;10.40;90.10
39601;DHT22;25297;44.758;11.310;2022-12-18T00:18:01;10.40;90.10
39601;DHT22;25297;44.758;11.310;2022-12-18T00:20:27;10.40;90.00
39601;DHT22;25297;44.758;11.310;2022-12-18T00:22:53;10.30;90.00
39601;DHT22;25297;44.758;11.310;2022-12-18T00:25:19;10.30;90.00
39601;DHT22;25297;44.758;11.310;2022-12-18T00:27:45;10.30;89.90
39601;DHT22;25297;44.758;11.310;2022-12-18T00:30:11;10.20;89.80
39601;DHT22;25297;44.758;11.310;2022-12-18T00:32:37;10.20;89.70
39601;DHT22;25297;44.758;11.310;2022-12-18T00:35:03;10.20;89.60
39601;DHT22;25297;44.758;11.310;2022-12-18T00:37:29;10.10;89.60
39601;DHT22;25297;44.758;11.310;2022-12-18T00:39:54;10.10;89.20
39601;DHT22;25297;44.758;11.310;2022-12-18T00:42:20;10.10;89.10
39601;DHT22;25297;44.758;11.310;2022-12-18T00:45:05;10.00;89.10
39601;DHT22;25297;44.758;11.310;2022-12-18T00:47:30;10.00;88.80
39601;DHT22;25297;44.758;11.310;2022-12-18T00:49:56;9.90;88.70
39601;DHT22;25297;44.758;11.310;2022-12-18T00:52:21;9.90;88.50
39601;DHT22;25297;44.758;11.310;2022-12-18T00:54:47;9.80;88.40
39601;DHT22;25297;44.758;11.310;2022-12-18T00:57:13;9.80;88.40
39601;DHT22;25297;44.758;11.310;2022-12-18T00:59:38;9.70;88.30
39601;DHT22;25297;44.758;11.310;2022-12-18T01:02:04;9.70;88.30
39601;DHT22;25297;44.758;11.310;2022-12-18T01:04:32;9.70;88.30
39601;DHT22;25297;44.758;11.310;2022-12-18T01:06:59;9.70;88.40
39601;DHT22;25297;44.758;11.310;2022-12-18T01:09:25;9.60;88.40
39601;DHT22;25297;44.758;11.310;2022-12-18T01:11:51;9.60;88.60
39601;DHT22;25297;44.758;11.310;2022-12-18T01:14:17;9.50;88.70
39601;DHT22;25297;44.758;11.310;2022-12-18T01:16:43;9.60;88.70
39601;DHT22;25297;44.758;11.310;2022-12-18T01:19:08;9.50;88.40
39601;DHT22;25297;44.758;11.310;2022-12-18T01:21:34;9.50;88.20
39601;DHT22;25297;44.758;11.310;2022-12-18T01:24:00;9.40;88.00
39601;DHT22;25297;44.758;11.310;2022-12-18T01:26:26;9.40;88.10
39601;DHT22;25297;44.758;11.310;2022-12-18T01:28:55;9.40;88.20
39601;DHT22;25297;44.758;11.310;2022-12-18T01:31:26;9.40;88.30
39601;DHT22;25297;44.758;11.310;2022-12-18T01:33:53;9.40;88.70
39601;DHT22;25297;44.758;11.310;2022-12-18T01:36:27;9.40;88.80
39601;DHT22;25297;44.758;11.310;2022-12-18T01:38:53;9.30;88.90
39601;DHT22;25297;44.758;11.310;2022-12-18T01:41:23;9.30;88.90
39601;DHT22;25297;44.758;11.310;2022-12-18T01:43:51;9.30;89.00
39601;DHT22;25297;44.758;11.310;2022-12-18T01:46:18;9.30;89.40
39601;DHT22;25297;44.758;11.310;2022-12-18T01:48:51;9.30;89.40
39601;DHT22;25297;44.758;11.310;2022-12-18T01:51:17;9.30;89.30
39601;DHT22;25297;44.758;11.310;2022-12-18T01:53:43;9.30;89.40
39601;DHT22;25297;44.758;11.310;2022-12-18T01:56:13;9.30;89.30
39601;DHT22;25297;44.758;11.310;2022-12-18T02:01:06;9.30;89.80
39601;DHT22;25297;44.758;11.310;2022-12-18T02:03:31;9.30;89.60
39601;DHT22;25297;44.758;11.310;2022-12-18T02:06:18;9.30;89.60
39601;DHT22;25297;44.758;11.310;2022-12-18T02:11:36;9.30;89.80
39601;DHT22;25297;44.758;11.310;2022-12-18T02:14:18;9.30;89.60
39601;DHT22;25297;44.758;11.310;2022-12-18T02:27:41;9.40;89.00
39601;DHT22;25297;44.758;11.310;2022-12-18T02:30:10;9.30;88.90
39601;DHT22;25297;44.758;11.310;2022-12-18T02:32:42;9.40;88.60
39601;DHT22;25297;44.758;11.310;2022-12-18T02:35:15;9.40;88.40
39601;DHT22;25297;44.758;11.310;2022-12-18T02:37:43;9.40;88.30
39601;DHT22;25297;44.758;11.310;2022-12-18T02:40:11;9.40;88.10
39601;DHT22;25297;44.758;11.310;2022-12-18T02:42:38;9.40;88.10
39601;DHT22;25297;44.758;11.310;2022-12-18T02:45:04;9.30;88.10
39601;DHT22;25297;44.758;11.310;2022-12-18T02:47:34;9.40;88.30
39601;DHT22;25297;44.758;11.310;2022-12-18T02:52:53;9.30;88.30
39601;DHT22;25297;44.758;11.310;2022-12-18T02:58:43;9.30;88.00
39601;DHT22;25297;44.758;11.310;2022-12-18T03:01:25;9.30;88.20
39601;DHT22;25297;44.758;11.310;2022-12-18T03:03:57;9.30;88.60
39601;DHT22;25297;44.758;11.310;2022-12-18T03:06:31;9.30;87.90
39601;DHT22;25297;44.758;11.310;2022-12-18T03:09:02;9.20;87.60
39601;DHT22;25297;44.758;11.310;2022-12-18T03:11:34;9.20;87.50
39601;DHT22;25297;44.758;11.310;2022-12-18T03:14:21;9.30;87.20
39601;DHT22;25297;44.758;11.310;2022-12-18T03:16:54;9.30;87.40
39601;DHT22;25297;44.758;11.310;2022-12-18T03:19:26;9.30;87.60
39601;DHT22;25297;44.758;11.310;2022-12-18T03:21:54;9.30;87.30
39601;DHT22;25297;44.758;11.310;2022-12-18T03:24:22;9.30;87.30
39601;DHT22;25297;44.758;11.310;2022-12-18T03:26:52;9.30;87.20
39601;DHT22;25297;44.758;11.310;2022-12-18T03:29:35;9.30;87.10
39601;DHT22;25297;44.758;11.310;2022-12-18T03:32:09;9.30;86.80
39601;DHT22;25297;44.758;11.310;2022-12-18T03:34:38;9.30;86.60
39601;DHT22;25297;44.758;11.310;2022-12-18T03:37:06;9.30;86.50
39601;DHT22;25297;44.758;11.310;2022-12-18T03:39:33;9.20;86.40
39601;DHT22;25297;44.758;11.310;2022-12-18T03:50:18;9.20;86.50
39601;DHT22;25297;44.758;11.310;2022-12-18T03:53:02;9.20;86.30
39601;DHT22;25297;44.758;11.310;2022-12-18T03:55:33;9.10;86.10
39601;DHT22;25297;44.758;11.310;2022-12-18T03:58:01;9.10;86.40
39601;DHT22;25297;44.758;11.310;2022-12-18T04:00:28;9.00;86.70
39601;DHT22;25297;44.758;11.310;2022-12-18T04:02:55;9.00;86.80
39601;DHT22;25297;44.758;11.310;2022-12-18T04:05:25;9.00;87.00
39601;DHT22;25297;44.758;11.310;2022-12-18T04:07:51;9.00;86.90
39601;DHT22;25297;44.758;11.310;2022-12-18T04:10:19;9.00;87.00
39601;DHT22;25297;44.758;11.310;2022-12-18T04:12:45;9.00;87.20
39601;DHT22;25297;44.758;11.310;2022-12-18T04:15:11;9.00;87.50
39601;DHT22;25297;44.758;11.310;2022-12-18T04:17:38;8.90;87.90
39601;DHT22;25297;44.758;11.310;2022-12-18T04:20:04;8.90;88.10
39601;DHT22;25297;44.758;11.310;2022-12-18T04:22:30;8.90;88.50
39601;DHT22;25297;44.758;11.310;2022-12-18T04:24:56;8.90;88.80
39601;DHT22;25297;44.758;11.310;2022-12-18T04:27:21;8.90;89.00
39601;DHT22;25297;44.758;11.310;2022-12-18T04:29:47;8.90;89.20
39601;DHT22;25297;44.758;11.310;2022-12-18T04:32:13;8.90;89.50
39601;DHT22;25297;44.758;11.310;2022-12-18T04:34:38;9.00;89.70
39601;DHT22;25297;44.758;11.310;2022-12-18T04:37:04;8.90;89.90
39601;DHT22;25297;44.758;11.310;2022-12-18T04:39:30;8.90;90.00
39601;DHT22;25297;44.758;11.310;2022-12-18T04:41:55;8.90;89.80
39601;DHT22;25297;44.758;11.310;2022-12-18T04:44:21;9.00;89.50
39601;DHT22;25297;44.758;11.310;2022-12-18T04:46:46;8.90;89.50
39601;DHT22;25297;44.758;11.310;2022-12-18T04:49:12;8.90;89.60
39601;DHT22;25297;44.758;11.310;2022-12-18T04:51:38;9.00;89.60
39601;DHT22;25297;44.758;11.310;2022-12-18T04:54:04;9.00;89.40
39601;DHT22;25297;44.758;11.310;2022-12-18T04:56:31;9.00;89.10
39601;DHT22;25297;44.758;11.310;2022-12-18T04:58:56;9.00;88.80
39601;DHT22;25297;44.758;11.310;2022-12-18T05:01:22;9.00;88.50
39601;DHT22;25297;44.758;11.310;2022-12-18T05:03:48;9.00;88.30
39601;DHT22;25297;44.758;11.310;2022-12-18T05:06:14;9.00;88.20
39601;DHT22;25297;44.758;11.310;2022-12-18T05:08:39;8.90;88.00
39601;DHT22;25297;44.758;11.310;2022-12-18T05:11:07;8.90;88.20
39601;DHT22;25297;44.758;11.310;2022-12-18T05:13:34;8.90;88.30
39601;DHT22;25297;44.758;11.310;2022-12-18T05:16:00;8.90;88.40
39601;DHT22;25297;44.758;11.310;2022-12-18T05:18:26;8.90;88.80
39601;DHT22;25297;44.758;11.310;2022-12-18T05:20:53;8.90;88.90
39601;DHT22;25297;44.758;11.310;2022-12-18T05:23:20;8.90;88.90
39601;DHT22;25297;44.758;11.310;2022-12-18T05:25:52;9.00;88.90
39601;DHT22;25297;44.758;11.310;2022-12-18T05:28:19;9.00;88.60
39601;DHT22;25297;44.758;11.310;2022-12-18T05:30:49;8.90;88.40
39601;DHT22;25297;44.758;11.310;2022-12-18T05:33:16;9.00;88.40
39601;DHT22;25297;44.758;11.310;2022-12-18T05:35:42;8.90;88.40
39601;DHT22;25297;44.758;11.310;2022-12-18T05:38:07;8.90;88.50
39601;DHT22;25297;44.758;11.310;2022-12-18T05:40:33;8.90;88.40
39601;DHT22;25297;44.758;11.310;2022-12-18T05:42:59;8.80;88.30
39601;DHT22;25297;44.758;11.310;2022-12-18T05:45:24;8.80;88.30
39601;DHT22;25297;44.758;11.310;2022-12-18T05:47:50;8.80;88.20
39601;DHT22;25297;44.758;11.310;2022-12-18T05:50:16;8.70;88.10
39601;DHT22;25297;44.758;11.310;2022-12-18T05:52:41;8.70;88.30
39601;DHT22;25297;44.758;11.310;2022-12-18T05:55:07;8.70;88.30
39601;DHT22;25297;44.758;11.310;2022-12-18T05:57:33;8.70;88.50
39601;DHT22;25297;44.758;11.310;2022-12-18T05:59:58;8.70;88.70
39601;DHT22;25297;44.758;11.310;2022-12-18T06:02:24;8.70;88.50
39601;DHT22;25297;44.758;11.310;2022-12-18T06:04:50;8.70;88.20
39601;DHT22;25297;44.758;11.310;2022-12-18T06:07:15;8.70;88.10
39601;DHT22;25297;44.758;11.310;2022-12-18T06:09:41;8.70;88.00
39601;DHT22;25297;44.758;11.310;2022-12-18T06:12:06;8.60;88.10
39601;DHT22;25297;44.758;11.310;2022-12-18T06:14:32;8.60;88.10
39601;DHT22;25297;44.758;11.310;2022-12-18T06:16:58;8.60;88.00
39601;DHT22;25297;44.758;11.310;2022-12-18T06:19:23;8.60;88.00
39601;DHT22;25297;44.758;11.310;2022-12-18T06:21:49;8.60;87.90
39601;DHT22;25297;44.758;11.310;2022-12-18T06:24:15;8.50;87.70
39601;DHT22;25297;44.758;11.310;2022-12-18T06:26:41;8.50;87.70
39601;DHT22;25297;44.758;11.310;2022-12-18T06:29:07;8.50;87.80
39601;DHT22;25297;44.758;11.310;2022-12-18T06:31:32;8.40;87.90
39601;DHT22;25297;44.758;11.310;2022-12-18T06:33:58;8.40;87.70
39601;DHT22;25297;44.758;11.310;2022-12-18T06:36:24;8.40;87.60
39601;DHT22;25297;44.758;11.310;2022-12-18T06:38:49;8.40;87.70
39601;DHT22;25297;44.758;11.310;2022-12-18T06:41:18;8.40;87.80
39601;DHT22;25297;44.758;11.310;2022-12-18T06:43:44;8.40;87.90
39601;DHT22;25297;44.758;11.310;2022-12-18T06:46:10;8.40;88.00
39601;DHT22;25297;44.758;11.310;2022-12-18T06:48:36;8.40;87.60
39601;DHT22;25297;44.758;11.310;2022-12-18T06:51:02;8.40;87.40
39601;DHT22;25297;44.758;11.310;2022-12-18T06:53:28;8.30;87.50
39601;DHT22;25297;44.758;11.310;2022-12-18T06:56:05;8.30;87.70
39601;DHT22;25297;44.758;11.310;2022-12-18T06:58:32;8.30;87.90
39601;DHT22;25297;44.758;11.310;2022-12-18T07:01:05;8.30;87.80
39601;DHT22;25297;44.758;11.310;2022-12-18T07:03:31;8.30;87.80
39601;DHT22;25297;44.758;11.310;2022-12-18T07:05:57;8.30;87.80
39601;DHT22;25297;44.758;11.310;2022-12-18T07:08:23;8.30;87.60
39601;DHT22;25297;44.758;11.310;2022-12-18T07:10:48;8.30;87.50
39601;DHT22;25297;44.758;11.310;2022-12-18T07:13:17;8.20;87.50
39601;DHT22;25297;44.758;11.310;2022-12-18T07:15:43;8.20;87.60
39601;DHT22;25297;44.758;11.310;2022-12-18T07:18:09;8.20;87.80
39601;DHT22;25297;44.758;11.310;2022-12-18T07:20:35;8.20;87.80
39601;DHT22;25297;44.758;11.310;2022-12-18T07:23:03;8.20;87.90
39601;DHT22;25297;44.758;11.310;2022-12-18T07:25:29;8.20;88.10
39601;DHT22;25297;44.758;11.310;2022-12-18T07:27:54;8.20;87.80
39601;DHT22;25297;44.758;11.310;2022-12-18T07:30:20;8.20;87.60
39601;DHT22;25297;44.758;11.310;2022-12-18T07:32:46;8.20;87.70
39601;DHT22;25297;44.758;11.310;2022-12-18T07:35:11;8.20;87.50
39601;DHT22;25297;44.758;11.310;2022-12-18T07:37:37;8.20;87.60
39601;DHT22;25297;44.758;11.310;2022-12-18T07:40:03;8.10;87.70
39601;DHT22;25297;44.758;11.310;2022-12-18T07:42:28;8.10;87.90
39601;DHT22;25297;44.758;11.310;2022-12-18T07:44:58;8.20;87.70
39601;DHT22;25297;44.758;11.310;2022-12-18T07:47:23;8.20;87.70
39601;DHT22;25297;44.758;11.310;2022-12-18T07:49:49;8.20;87.90
39601;DHT22;25297;44.758;11.310;2022-12-18T07:52:15;8.20;87.90
39601;DHT22;25297;44.758;11.310;2022-12-18T07:54:40;8.20;87.80
39601;DHT22;25297;44.758;11.310;2022-12-18T07:57:07;8.20;87.80
39601;DHT22;25297;44.758;11.310;2022-12-18T07:59:32;8.30;88.00
39601;DHT22;25297;44.758;11.310;2022-12-18T08:01:58;8.30;88.10
39601;DHT22;25297;44.758;11.310;2022-12-18T08:04:24;8.20;88.00
39601;DHT22;25297;44.758;11.310;2022-12-18T08:06:50;8.20;88.10
39601;DHT22;25297;44.758;11.310;2022-12-18T08:09:16;8.30;88.30
39601;DHT22;25297;44.758;11.310;2022-12-18T08:11:42;8.30;88.30
39601;DHT22;25297;44.758;11.310;2022-12-18T08:14:07;8.40;88.60
39601;DHT22;25297;44.758;11.310;2022-12-18T08:16:33;8.40;88.60
39601;DHT22;25297;44.758;11.310;2022-12-18T08:18:59;8.40;88.60
39601;DHT22;25297;44.758;11.310;2022-12-18T08:21:28;8.40;88.70
39601;DHT22;25297;44.758;11.310;2022-12-18T08:23:56;8.40;88.60
39601;DHT22;25297;44.758;11.310;2022-12-18T08:26:23;8.40;88.50
39601;DHT22;25297;44.758;11.310;2022-12-18T08:28:51;8.40;88.40
39601;DHT22;25297;44.758;11.310;2022-12-18T08:31:18;8.50;88.40
39601;DHT22;25297;44.758;11.310;2022-12-18T08:33:44;8.50;88.80
39601;DHT22;25297;44.758;11.310;2022-12-18T08:36:10;8.60;88.80
39601;DHT22;25297;44.758;11.310;2022-12-18T08:38:36;8.60;88.30
39601;DHT22;25297;44.758;11.310;2022-12-18T08:41:08;8.70;88.40
39601;DHT22;25297;44.758;11.310;2022-12-18T08:43:34;8.70;88.40
39601;DHT22;25297;44.758;11.310;2022-12-18T08:46:20;8.70;88.40
39601;DHT22;25297;44.758;11.310;2022-12-18T08:48:47;8.80;88.20
39601;DHT22;25297;44.758;11.310;2022-12-18T08:51:15;8.80;88.00
39601;DHT22;25297;44.758;11.310;2022-12-18T08:53:41;8.90;87.90
39601;DHT22;25297;44.758;11.310;2022-12-18T08:56:07;9.00;87.80
39601;DHT22;25297;44.758;11.310;2022-12-18T08:58:33;9.00;87.80
39601;DHT22;25297;44.758;11.310;2022-12-18T09:01:04;9.10;87.90
39601;DHT22;25297;44.758;11.310;2022-12-18T09:03:30;9.20;87.80
39601;DHT22;25297;44.758;11.310;2022-12-18T09:05:55;9.30;87.90
39601;DHT22;25297;44.758;11.310;2022-12-18T09:08:21;9.30;87.70
39601;DHT22;25297;44.758;11.310;2022-12-18T09:10:48;9.40;87.80
39601;DHT22;25297;44.758;11.310;2022-12-18T09:13:15;9.40;87.90
39601;DHT22;25297;44.758;11.310;2022-12-18T09:15:46;9.50;88.10
39601;DHT22;25297;44.758;11.310;2022-12-18T09:18:13;9.60;88.40
39601;DHT22;25297;44.758;11.310;2022-12-18T09:20:40;9.60;88.50
39601;DHT22;25297;44.758;11.310;2022-12-18T09:23:06;9.70;88.20
39601;DHT22;25297;44.758;11.310;2022-12-18T09:25:32;9.80;87.90
39601;DHT22;25297;44.758;11.310;2022-12-18T09:28:16;10.00;87.40
39601;DHT22;25297;44.758;11.310;2022-12-18T09:30:46;10.10;87.00
39601;DHT22;25297;44.758;11.310;2022-12-18T09:33:12;10.30;86.50
39601;DHT22;25297;44.758;11.310;2022-12-18T09:35:39;10.40;86.20
39601;DHT22;25297;44.758;11.310;2022-12-18T09:38:05;10.60;86.50
39601;DHT22;25297;44.758;11.310;2022-12-18T09:40:36;10.80;85.60
39601;DHT22;25297;44.758;11.310;2022-12-18T09:43:06;11.00;84.70
39601;DHT22;25297;44.758;11.310;2022-12-18T09:45:43;11.10;83.90
39601;DHT22;25297;44.758;11.310;2022-12-18T09:48:23;11.20;82.90
39601;DHT22;25297;44.758;11.310;2022-12-18T09:50:57;11.30;82.90
39601;DHT22;25297;44.758;11.310;2022-12-18T09:53:27;11.40;82.60
39601;DHT22;25297;44.758;11.310;2022-12-18T09:55:56;11.40;81.10
39601;DHT22;25297;44.758;11.310;2022-12-18T09:58:29;11.50;80.50
39601;DHT22;25297;44.758;11.310;2022-12-18T10:00:57;11.50;80.60
39601;DHT22;25297;44.758;11.310;2022-12-18T10:03:22;11.50;80.40
39601;DHT22;25297;44.758;11.310;2022-12-18T10:09:05;11.50;78.90
39601;DHT22;25297;44.758;11.310;2022-12-18T10:11:48;11.50;79.10
39601;DHT22;25297;44.758;11.310;2022-12-18T10:19:51;11.60;78.30
39601;DHT22;25297;44.758;11.310;2022-12-18T10:25:42;11.70;77.90
39601;DHT22;25297;44.758;11.310;2022-12-18T10:28:14;11.80;78.20
39601;DHT22;25297;44.758;11.310;2022-12-18T10:30:41;11.80;77.40
39601;DHT22;25297;44.758;11.310;2022-12-18T10:33:22;11.80;77.50
39601;DHT22;25297;44.758;11.310;2022-12-18T10:35:50;11.80;77.20
39601;DHT22;25297;44.758;11.310;2022-12-18T10:40:54;11.90;76.40
39601;DHT22;25297;44.758;11.310;2022-12-18T10:48:31;12.00;76.90
39601;DHT22;25297;44.758;11.310;2022-12-18T10:50:58;11.90;77.10
39601;DHT22;25297;44.758;11.310;2022-12-18T10:53:27;12.00;76.40
39601;DHT22;25297;44.758;11.310;2022-12-18T10:55:55;12.00;76.40
39601;DHT22;25297;44.758;11.310;2022-12-18T11:01:14;12.00;76.30
39601;DHT22;25297;44.758;11.310;2022-12-18T11:03:44;12.00;76.50
39601;DHT22;25297;44.758;11.310;2022-12-18T11:08:36;12.10;75.20
39601;DHT22;25297;44.758;11.310;2022-12-18T11:11:02;12.10;74.80
39601;DHT22;25297;44.758;11.310;2022-12-18T11:13:30;12.10;74.60
39601;DHT22;25297;44.758;11.310;2022-12-18T11:15:57;12.20;74.80
39601;DHT22;25297;44.758;11.310;2022-12-18T11:18:32;12.20;74.60
39601;DHT22;25297;44.758;11.310;2022-12-18T11:21:07;12.20;75.10
39601;DHT22;25297;44.758;11.310;2022-12-18T11:23:35;12.30;75.70
39601;DHT22;25297;44.758;11.310;2022-12-18T11:26:03;12.30;75.40
39601;DHT22;25297;44.758;11.310;2022-12-18T11:28:49;12.30;75.30
39601;DHT22;25297;44.758;11.310;2022-12-18T11:34:04;12.40;74.20
39601;DHT22;25297;44.758;11.310;2022-12-18T11:36:36;12.40;74.40
39601;DHT22;25297;44.758;11.310;2022-12-18T11:39:30;12.40;74.90
39601;DHT22;25297;44.758;11.310;2022-12-18T11:42:08;12.40;75.00
39601;DHT22;25297;44.758;11.310;2022-12-18T11:44:54;12.40;74.80
39601;DHT22;25297;44.758;11.310;2022-12-18T11:50:17;12.50;75.20
39601;DHT22;25297;44.758;11.310;2022-12-18T11:52:43;12.50;74.50
39601;DHT22;25297;44.758;11.310;2022-12-18T12:00:25;12.60;74.40
39601;DHT22;25297;44.758;11.310;2022-12-18T12:03:14;12.60;74.40
39601;DHT22;25297;44.758;11.310;2022-12-18T12:14:10;12.80;75.10
39601;DHT22;25297;44.758;11.310;2022-12-18T12:31:07;13.20;73.10
39601;DHT22;25297;44.758;11.310;2022-12-18T12:33:59;13.30;73.00
39601;DHT22;25297;44.758;11.310;2022-12-18T12:39:13;13.50;72.80
39601;DHT22;25297;44.758;11.310;2022-12-18T12:41:41;13.60;73.10
39601;DHT22;25297;44.758;11.310;2022-12-18T12:44:34;13.70;73.10
39601;DHT22;25297;44.758;11.310;2022-12-18T12:47:33;13.90;72.70
39601;DHT22;25297;44.758;11.310;2022-12-18T12:49:58;14.00;73.40
39601;DHT22;25297;44.758;11.310;2022-12-18T12:52:34;14.10;73.00
39601;DHT22;25297;44.758;11.310;2022-12-18T12:55:04;14.30;72.00
39601;DHT22;25297;44.758;11.310;2022-12-18T13:00:46;14.50;71.50
39601;DHT22;25297;44.758;11.310;2022-12-18T13:05:58;14.60;70.90
39601;DHT22;25297;44.758;11.310;2022-12-18T13:08:30;14.70;70.20
39601;DHT22;25297;44.758;11.310;2022-12-18T13:10:57;14.60;70.50
39601;DHT22;25297;44.758;11.310;2022-12-18T13:13:54;14.70;70.20
39601;DHT22;25297;44.758;11.310;2022-12-18T13:16:24;14.70;69.90
39601;DHT22;25297;44.758;11.310;2022-12-18T13:18:55;14.70;69.20
39601;DHT22;25297;44.758;11.310;2022-12-18T13:21:24;14.70;69.50
39601;DHT22;25297;44.758;11.310;2022-12-18T13:23:52;14.70;69.30
39601;DHT22;25297;44.758;11.310;2022-12-18T13:34:19;14.70;69.70
39601;DHT22;25297;44.758;11.310;2022-12-18T13:36:45;14.70;69.40
39601;DHT22;25297;44.758;11.310;2022-12-18T13:41:40;14.60;69.10
39601;DHT22;25297;44.758;11.310;2022-12-18T13:46:54;14.50;69.90
39601;DHT22;25297;44.758;11.310;2022-12-18T13:49:38;14.50;69.10
39601;DHT22;25297;44.758;11.310;2022-12-18T13:52:20;14.40;68.70
39601;DHT22;25297;44.758;11.310;2022-12-18T13:54:47;14.30;68.70
39601;DHT22;25297;44.758;11.310;2022-12-18T13:57:37;14.20;69.00
39601;DHT22;25297;44.758;11.310;2022-12-18T14:00:29;14.20;69.20
39601;DHT22;25297;44.758;11.310;2022-12-18T14:02:56;14.10;69.70
39601;DHT22;25297;44.758;11.310;2022-12-18T14:05:32;14.10;69.90
39601;DHT22;25297;44.758;11.310;2022-12-18T14:08:03;14.00;69.30
39601;DHT22;25297;44.758;11.310;2022-12-18T14:10:30;13.90;69.10
39601;DHT22;25297;44.758;11.310;2022-12-18T14:12:56;13.90;69.30
39601;DHT22;25297;44.758;11.310;2022-12-18T14:20:49;13.80;69.30
39601;DHT22;25297;44.758;11.310;2022-12-18T14:23:35;13.70;69.30
39601;DHT22;25297;44.758;11.310;2022-12-18T14:26:03;13.70;68.90
39601;DHT22;25297;44.758;11.310;2022-12-18T14:28:44;13.60;69.20
39601;DHT22;25297;44.758;11.310;2022-12-18T14:31:35;13.60;69.30
39601;DHT22;25297;44.758;11.310;2022-12-18T14:34:01;13.60;69.20
39601;DHT22;25297;44.758;11.310;2022-12-18T14:36:28;13.50;68.80
39601;DHT22;25297;44.758;11.310;2022-12-18T14:38:56;13.50;68.80
39601;DHT22;25297;44.758;11.310;2022-12-18T14:41:23;13.50;69.40
39601;DHT22;25297;44.758;11.310;2022-12-18T14:43:53;13.40;69.70
39601;DHT22;25297;44.758;11.310;2022-12-18T14:46:39;13.40;70.20
39601;DHT22;25297;44.758;11.310;2022-12-18T14:51:54;13.30;70.50
39601;DHT22;25297;44.758;11.310;2022-12-18T14:54:22;13.30;71.30
39601;DHT22;25297;44.758;11.310;2022-12-18T14:59:23;13.20;71.80
39601;DHT22;25297;44.758;11.310;2022-12-18T15:02:15;13.20;72.60
39601;DHT22;25297;44.758;11.310;2022-12-18T15:04:44;13.20;73.10
39601;DHT22;25297;44.758;11.310;2022-12-18T15:07:14;13.20;73.80
39601;DHT22;25297;44.758;11.310;2022-12-18T15:09:42;13.20;74.70
39601;DHT22;25297;44.758;11.310;2022-12-18T15:12:28;13.10;74.70
39601;DHT22;25297;44.758;11.310;2022-12-18T15:14:57;13.10;75.00
39601;DHT22;25297;44.758;11.310;2022-12-18T15:17:24;13.00;74.60
39601;DHT22;25297;44.758;11.310;2022-12-18T15:20:00;13.00;75.00
39601;DHT22;25297;44.758;11.310;2022-12-18T15:22:27;12.90;75.20
39601;DHT22;25297;44.758;11.310;2022-12-18T15:24:55;12.80;75.30
39601;DHT22;25297;44.758;11.310;2022-12-18T15:32:27;12.60;74.90
39601;DHT22;25297;44.758;11.310;2022-12-18T15:35:23;12.50;75.30
39601;DHT22;25297;44.758;11.310;2022-12-18T15:37:49;12.50;75.40
39601;DHT22;25297;44.758;11.310;2022-12-18T15:40:20;12.40;74.70
39601;DHT22;25297;44.758;11.310;2022-12-18T15:42:46;12.30;74.40
39601;DHT22;25297;44.758;11.310;2022-12-18T15:45:31;12.30;74.90
39601;DHT22;25297;44.758;11.310;2022-12-18T15:47:57;12.30;75.20
39601;DHT22;25297;44.758;11.310;2022-12-18T15:50:23;12.20;76.10
39601;DHT22;25297;44.758;11.310;2022-12-18T15:52:51;12.20;76.40
39601;DHT22;25297;44.758;11.310;2022-12-18T15:55:21;12.10;76.30
39601;DHT22;25297;44.758;11.310;2022-12-18T15:58:07;12.10;76.30
39601;DHT22;25297;44.758;11.310;2022-12-18T16:00:35;12.00;76.50
39601;DHT22;25297;44.758;11.310;2022-12-18T16:03:02;11.90;75.60
39601;DHT22;25297;44.758;11.310;2022-12-18T16:05:30;11.80;75.10
39601;DHT22;25297;44.758;11.310;2022-12-18T16:07:56;11.70;75.60
39601;DHT22;25297;44.758;11.310;2022-12-18T16:10:22;11.60;76.10
39601;DHT22;25297;44.758;11.310;2022-12-18T16:12:48;11.60;76.10
39601;DHT22;25297;44.758;11.310;2022-12-18T16:15:14;11.50;76.00
39601;DHT22;25297;44.758;11.310;2022-12-18T16:17:42;11.40;76.70
39601;DHT22;25297;44.758;11.310;2022-12-18T16:20:19;11.30;76.80
39601;DHT22;25297;44.758;11.310;2022-12-18T16:22:46;11.40;77.30
39601;DHT22;25297;44.758;11.310;2022-12-18T16:25:24;11.30;77.50
39601;DHT22;25297;44.758;11.310;2022-12-18T16:27:51;11.30;77.70
39601;DHT22;25297;44.758;11.310;2022-12-18T16:30:20;11.20;78.40
39601;DHT22;25297;44.758;11.310;2022-12-18T16:32:46;11.20;77.90
39601;DHT22;25297;44.758;11.310;2022-12-18T16:35:13;11.20;77.80
39601;DHT22;25297;44.758;11.310;2022-12-18T16:37:40;11.20;78.10
39601;DHT22;25297;44.758;11.310;2022-12-18T16:40:12;11.10;78.00
39601;DHT22;25297;44.758;11.310;2022-12-18T16:42:39;11.10;78.10
39601;DHT22;25297;44.758;11.310;2022-12-18T16:45:07;11.00;78.10
39601;DHT22;25297;44.758;11.310;2022-12-18T16:47:33;11.00;78.10
39601;DHT22;25297;44.758;11.310;2022-12-18T16:49:59;11.00;78.30
39601;DHT22;25297;44.758;11.310;2022-12-18T16:52:25;10.90;78.50
39601;DHT22;25297;44.758;11.310;2022-12-18T16:54:51;10.90;78.90
39601;DHT22;25297;44.758;11.310;2022-12-18T16:57:18;10.90;79.00
39601;DHT22;25297;44.758;11.310;2022-12-18T16:59:45;10.90;79.40
39601;DHT22;25297;44.758;11.310;2022-12-18T17:02:16;10.90;79.40
39601;DHT22;25297;44.758;11.310;2022-12-18T17:04:43;10.90;79.50
39601;DHT22;25297;44.758;11.310;2022-12-18T17:07:09;10.80;79.70
39601;DHT22;25297;44.758;11.310;2022-12-18T17:09:36;10.80;79.90
39601;DHT22;25297;44.758;11.310;2022-12-18T17:12:02;10.80;79.90
39601;DHT22;25297;44.758;11.310;2022-12-18T17:14:27;10.80;79.70
39601;DHT22;25297;44.758;11.310;2022-12-18T17:16:53;10.80;79.80
39601;DHT22;25297;44.758;11.310;2022-12-18T17:19:20;10.80;79.90
39601;DHT22;25297;44.758;11.310;2022-12-18T17:21:47;10.70;80.10
39601;DHT22;25297;44.758;11.310;2022-12-18T17:24:14;10.70;80.40
39601;DHT22;25297;44.758;11.310;2022-12-18T17:26:40;10.70;80.70
39601;DHT22;25297;44.758;11.310;2022-12-18T17:29:06;10.70;81.00
39601;DHT22;25297;44.758;11.310;2022-12-18T17:31:32;10.70;81.00
39601;DHT22;25297;44.758;11.310;2022-12-18T17:33:58;10.60;81.00
39601;DHT22;25297;44.758;11.310;2022-12-18T17:36:25;10.60;81.10
39601;DHT22;25297;44.758;11.310;2022-12-18T17:38:57;10.60;81.20
39601;DHT22;25297;44.758;11.310;2022-12-18T17:41:24;10.60;81.20
39601;DHT22;25297;44.758;11.310;2022-12-18T17:43:53;10.60;81.60